Главная страница
METAR-TAF:

METAR-TAF

Аэропорты :

Молде, Норвегия

широта: 62-45N, долгота: 007-16E, высота над уровнем моря: 0 м

Текущие метеонаблюдения

Эта сводка был подготовлена 27 минут назад, в 22:20 UTC
Ветер 3 Узел от северный, изменяющийся между северно-северо-западный и юго-восточный
Температура 3°C
Влажность 87%
Давление 1008 hPa
Видимость 10 км и более

METAR: ENML 072220Z AUTO 01003KT 330V140 9999NDV SCT023/// 03/01 Q1008

Время: 00:47 (22:47 UTC)

Прогноз

Эта сводка был подготовлена 8 часа и 47 минут назад, в 14:00 UTC
Прогноз действительный с 07-го 15 UTC до 07-го 20 UTC
Ветер 8 Узел от западный
Видимость 10 км и более
небольшая облачность на высоте 3000 фута, мощно-кучевые.
Вероятность 30% :
временами
С 07-го 15 UTC до 07-го 20 UTC
Ветер 10 Узел от северно-северо-западный
Рассеянная облачность на высоте 3000 фута, Кучево-дождевые.
ливневые дожди

TAF: ENML 071400Z 0715/0720 26008KT 9999 FEW030TCU PROB30 TEMPO 0715/0720 34010KT SHRA BKN030CB

Метеонаблюдения и прогнозы для более 4000 аэропортов (сводки METAR и TAF).

Имеющиеся станции представлены на карте желтыми и красными точками.

Чтобы увидеть название станции, наведите на нее мышь.

Затем щелкните, чтобы увидеть метеонаблюдения и метеопрогнозы.

Управление картой: чтобы увеличить масштаб, щелкните зеленые кнопки с черным крестиком; чтобы уменьшить масштаб, щелкните зеленую кнопку с тире; для просмотра соседних карт щелкайте зеленые стрелки.


METAR-TAF: